Pagina principale
METAR-TAF:

METAR-TAF

Aeroporti :

Buochs, Svizzera

latitudine: 46-58-28N, longitudine: 8-23-49E, altezza: 449 m

Osservazione

Il bollettino è stato emesso 26 minuti fa, alle 15:20 UTC
Vento 4 kt da direzioni variabili
Temperature 28°C
Umidità 27%
Pressione 1014 hPa
Visibilità 10 km o più

METAR: LSZC 131520Z AUTO VRB04KT 9999 NCD 28/07 Q1014

Ora: 17:46 (15:46 UTC)

Previsione

Il bollettino è stato emesso 25 ore e 21 minuti fa, alle 14:25 UTC
Previsione valida dal 12 alle 15 UTC al 12 alle 24 UTC
Vento 5 kt da est
Visibilità 10 km o più
nessuna nube inferiore a 1500 m e nessun cumulonembo
Temporaneamente
dal 12 alle 15 UTC al 12 alle 20 UTC
Visibilità 10 km o più
Poco nuvoloso ad un'altezza di 5000 ft

TAF: LSZC 121425Z 1215/1224 08005KT CAVOK TEMPO 1215/1220 9999 FEW050

Osservazioni e previsioni meteorologiche di più di 4000 aeroporti (messaggi METAR e TAF).

Le stazioni disponibili sono rappresentate dai dischi gialli e rossi sulla carta.

Puntare il mouse per vedere il nome della stazione.

Clicca sopra per visualizzare le osservazioni e previsioni meteorologiche.

Per cambiare la mappa : fare clic sui pulsanti verdi con una croce nera per ingrandire, il pulsante verde con un trattino per diminuire, o sulla freccia verde per le mappe adiacenti.


METAR-TAF: